Time,TemperatureF,DewpointF,PressureIn,WindDirection,WindDirectionDegrees,WindSpeedMPH,WindSpeedGustMPH,Humidity,HourlyPrecipIn,Conditions,Clouds,dailyrainin,SoftwareType,DateUTC
2013-07-02 00:03:00,72.0,71.0,30.02,NE,36,0.0,0.0,97,0.00,,,0.00,weatherlink.com 1.10,2013-07-02 04:03:00,
2013-07-02 00:18:00,72.0,71.0,30.02,NE,36,0.0,1.0,97,0.00,,,0.00,weatherlink.com 1.10,2013-07-02 04:18:00,
2013-07-02 00:33:00,72.1,71.0,30.02,NE,36,0.0,1.0,97,0.00,,,0.00,weatherlink.com 1.10,2013-07-02 04:33:00,
2013-07-02 00:48:00,72.1,71.0,30.03,NE,36,0.0,0.0,97,0.00,,,0.00,weatherlink.com 1.10,2013-07-02 04:48:00,
2013-07-02 01:03:00,72.1,71.0,30.03,NE,36,0.0,0.0,97,0.00,,,0.00,weatherlink.com 1.10,2013-07-02 05:03:00,
2013-07-02 01:18:00,72.1,71.0,30.03,NE,36,0.0,0.0,97,0.00,,,0.00,weatherlink.com 1.10,2013-07-02 05:18:00,
2013-07-02 01:33:00,72.1,71.0,30.03,NE,36,0.0,0.0,97,0.00,,,0.00,weatherlink.com 1.10,2013-07-02 05:33:00,
2013-07-02 01:48:00,72.1,71.0,30.02,NE,36,0.0,1.0,97,0.00,,,0.00,weatherlink.com 1.10,2013-07-02 05:48:00,
2013-07-02 02:03:00,72.0,71.0,30.02,NE,36,0.0,0.0,97,0.00,,,0.00,weatherlink.com 1.10,2013-07-02 06:03:00,
2013-07-02 02:18:00,72.0,71.0,30.02,NE,36,0.0,0.0,98,0.00,,,0.00,weatherlink.com 1.10,2013-07-02 06:18:00,
2013-07-02 02:33:00,72.0,71.0,30.02,NE,36,0.0,1.0,98,0.00,,,0.00,weatherlink.com 1.10,2013-07-02 06:33:00,
2013-07-02 02:48:00,72.0,71.0,30.02,NE,36,0.0,1.0,98,0.00,,,0.00,weatherlink.com 1.10,2013-07-02 06:48:00,
2013-07-02 03:03:00,71.9,71.0,30.02,NE,36,0.0,1.0,98,0.00,,,0.00,weatherlink.com 1.10,2013-07-02 07:03:00,
2013-07-02 03:18:00,71.8,71.0,30.02,NE,36,0.0,1.0,98,0.00,,,0.00,weatherlink.com 1.10,2013-07-02 07:18:00,
2013-07-02 03:33:00,71.8,71.0,30.02,NE,36,0.0,0.0,98,0.00,,,0.00,weatherlink.com 1.10,2013-07-02 07:33:00,
2013-07-02 03:48:00,71.8,71.0,30.02,NE,36,0.0,1.0,98,0.00,,,0.00,weatherlink.com 1.10,2013-07-02 07:48:00,
2013-07-02 04:03:00,71.8,71.0,30.03,NE,36,0.0,1.0,98,0.00,,,0.00,weatherlink.com 1.10,2013-07-02 08:03:00,
2013-07-02 04:18:00,71.8,71.0,30.03,NE,36,0.0,1.0,98,0.00,,,0.00,weatherlink.com 1.10,2013-07-02 08:18:00,
2013-07-02 04:33:00,71.9,71.0,30.03,NE,36,0.0,1.0,98,0.00,,,0.00,weatherlink.com 1.10,2013-07-02 08:33:00,
2013-07-02 04:48:00,71.8,71.0,30.04,NE,36,0.0,1.0,98,0.00,,,0.00,weatherlink.com 1.10,2013-07-02 08:48:00,
2013-07-02 05:03:00,71.7,71.0,30.04,NE,36,0.0,0.0,98,0.00,,,0.00,weatherlink.com 1.10,2013-07-02 09:03:00,
2013-07-02 05:18:00,71.7,71.0,30.05,NE,36,0.0,1.0,98,0.00,,,0.00,weatherlink.com 1.10,2013-07-02 09:18:00,
2013-07-02 05:33:00,71.7,71.0,30.05,NE,36,0.0,1.0,98,0.01,,,0.01,weatherlink.com 1.10,2013-07-02 09:33:00,
2013-07-02 05:48:00,71.7,71.0,30.05,NE,36,0.0,0.0,98,0.01,,,0.01,weatherlink.com 1.10,2013-07-02 09:48:00,
2013-07-02 06:03:00,71.8,71.0,30.05,NE,36,0.0,1.0,98,0.01,,,0.01,weatherlink.com 1.10,2013-07-02 10:03:00,
2013-07-02 06:18:00,71.8,71.0,30.06,NE,36,0.0,0.0,98,0.01,,,0.01,weatherlink.com 1.10,2013-07-02 10:18:00,
2013-07-02 06:33:00,71.9,71.0,30.06,NE,36,0.0,0.0,98,0.00,,,0.01,weatherlink.com 1.10,2013-07-02 10:33:00,
2013-07-02 06:48:00,72.0,71.0,30.06,NNE,18,0.0,2.0,98,0.00,,,0.01,weatherlink.com 1.10,2013-07-02 10:48:00,
2013-07-02 07:03:00,72.2,72.0,30.07,NNE,19,0.0,1.0,98,0.00,,,0.01,weatherlink.com 1.10,2013-07-02 11:03:00,
2013-07-02 07:18:00,72.2,72.0,30.07,NNE,19,0.0,1.0,98,0.00,,,0.01,weatherlink.com 1.10,2013-07-02 11:18:00,
2013-07-02 07:33:00,72.3,72.0,30.08,NNE,19,0.0,1.0,98,0.00,,,0.01,weatherlink.com 1.10,2013-07-02 11:33:00,
2013-07-02 07:48:00,72.5,72.0,30.08,NNE,19,0.0,0.0,98,0.00,,,0.01,weatherlink.com 1.10,2013-07-02 11:48:00,
2013-07-02 08:03:00,72.8,72.0,30.08,NNE,19,0.0,1.0,98,0.00,,,0.01,weatherlink.com 1.10,2013-07-02 12:03:00,
2013-07-02 08:18:00,73.1,73.0,30.08,NNE,19,0.0,2.0,98,0.00,,,0.01,weatherlink.com 1.10,2013-07-02 12:18:00,
2013-07-02 08:33:00,73.2,73.0,30.08,NNE,12,0.0,1.0,98,0.00,,,0.01,weatherlink.com 1.10,2013-07-02 12:33:00,
2013-07-02 08:48:00,73.2,73.0,30.08,NNE,12,0.0,1.0,98,0.00,,,0.01,weatherlink.com 1.10,2013-07-02 12:48:00,
2013-07-02 09:03:00,73.2,72.0,30.09,NNE,19,0.0,3.0,97,0.00,,,0.01,weatherlink.com 1.10,2013-07-02 13:03:00,
2013-07-02 09:18:00,73.2,72.0,30.09,ENE,59,0.0,1.0,97,0.00,,,0.01,weatherlink.com 1.10,2013-07-02 13:18:00,
2013-07-02 09:33:00,73.4,73.0,30.09,ENE,63,0.0,0.0,97,0.00,,,0.01,weatherlink.com 1.10,2013-07-02 13:33:00,
2013-07-02 09:48:00,73.5,73.0,30.09,ENE,58,0.0,1.0,97,0.00,,,0.01,weatherlink.com 1.10,2013-07-02 13:48:00,
2013-07-02 10:03:00,73.7,73.0,30.09,NE,34,0.0,1.0,97,0.00,,,0.01,weatherlink.com 1.10,2013-07-02 14:03:00,
2013-07-02 10:18:00,74.0,73.0,30.09,NE,34,0.0,1.0,97,0.00,,,0.01,weatherlink.com 1.10,2013-07-02 14:18:00,
2013-07-02 10:33:00,74.2,73.0,30.10,ENE,75,0.0,2.0,96,0.00,,,0.01,weatherlink.com 1.10,2013-07-02 14:33:00,
2013-07-02 10:48:00,74.6,73.0,30.10,ENE,76,0.0,1.0,95,0.00,,,0.01,weatherlink.com 1.10,2013-07-02 14:48:00,
2013-07-02 11:03:00,74.9,73.0,30.10,East,91,0.0,1.0,95,0.00,,,0.01,weatherlink.com 1.10,2013-07-02 15:03:00,
2013-07-02 11:18:00,75.4,74.0,30.10,ESE,107,0.0,1.0,94,0.00,,,0.01,weatherlink.com 1.10,2013-07-02 15:18:00,
2013-07-02 11:33:00,76.1,74.0,30.10,ESE,113,0.0,3.0,94,0.00,,,0.01,weatherlink.com 1.10,2013-07-02 15:33:00,
2013-07-02 11:49:00,76.8,74.0,30.10,ESE,113,0.0,1.0,92,0.00,,,0.01,weatherlink.com 1.10,2013-07-02 15:49:00,
2013-07-02 12:04:00,77.3,74.0,30.10,North,5,0.0,4.0,90,0.00,,,0.01,weatherlink.com 1.10,2013-07-02 16:04:00,
2013-07-02 12:19:00,77.9,75.0,30.10,NNE,19,0.0,2.0,90,0.00,,,0.01,weatherlink.com 1.10,2013-07-02 16:19:00,
2013-07-02 12:34:00,78.2,74.0,30.11,South,182,0.0,3.0,88,0.00,,,0.01,weatherlink.com 1.10,2013-07-02 16:34:00,
2013-07-02 12:49:00,77.9,74.0,30.10,NW,313,1.0,3.0,88,0.00,,,0.01,weatherlink.com 1.10,2013-07-02 16:49:00,
2013-07-02 13:04:00,77.8,74.0,30.10,SSW,197,0.0,4.0,89,0.00,,,0.01,weatherlink.com 1.10,2013-07-02 17:04:00,
2013-07-02 13:19:00,77.8,74.0,30.10,ESE,115,0.0,2.0,89,0.00,,,0.01,weatherlink.com 1.10,2013-07-02 17:19:00,
2013-07-02 13:34:00,77.8,74.0,30.10,SSE,152,1.0,2.0,89,0.00,,,0.01,weatherlink.com 1.10,2013-07-02 17:34:00,
2013-07-02 13:49:00,77.6,75.0,30.10,SE,134,0.0,1.0,90,0.00,,,0.01,weatherlink.com 1.10,2013-07-02 17:49:00,
2013-07-02 14:04:00,77.5,75.0,30.09,South,173,0.0,2.0,91,0.00,,,0.01,weatherlink.com 1.10,2013-07-02 18:04:00,
2013-07-02 14:19:00,78.0,75.0,30.09,South,173,0.0,2.0,90,0.00,,,0.01,weatherlink.com 1.10,2013-07-02 18:19:00,
2013-07-02 14:34:00,79.6,76.0,30.09,South,174,0.0,2.0,87,0.00,,,0.01,weatherlink.com 1.10,2013-07-02 18:34:00,
2013-07-02 14:49:00,80.2,75.0,30.08,SSE,155,0.0,3.0,85,0.00,,,0.01,weatherlink.com 1.10,2013-07-02 18:49:00,
2013-07-02 15:04:00,81.3,75.0,30.08,SSE,157,0.0,6.0,82,0.00,,,0.01,weatherlink.com 1.10,2013-07-02 19:04:00,
2013-07-02 15:19:00,80.9,75.0,30.08,South,170,0.0,5.0,83,0.00,,,0.01,weatherlink.com 1.10,2013-07-02 19:19:00,
2013-07-02 15:34:00,80.5,75.0,30.07,NE,36,0.0,3.0,83,0.00,,,0.01,weatherlink.com 1.10,2013-07-02 19:34:00,
2013-07-02 15:49:00,80.1,76.0,30.07,NE,37,0.0,1.0,86,0.00,,,0.01,weatherlink.com 1.10,2013-07-02 19:49:00,
2013-07-02 16:04:00,79.3,75.0,30.07,NE,36,0.0,1.0,87,0.00,,,0.01,weatherlink.com 1.10,2013-07-02 20:04:00,
2013-07-02 16:19:00,78.1,75.0,30.07,WNW,283,0.0,3.0,89,0.01,,,0.02,weatherlink.com 1.10,2013-07-02 20:19:00,
2013-07-02 16:34:00,77.0,74.0,30.07,West,279,0.0,3.0,91,0.01,,,0.02,weatherlink.com 1.10,2013-07-02 20:34:00,
2013-07-02 16:49:00,76.7,75.0,30.07,WNW,283,0.0,1.0,93,0.12,,,0.13,weatherlink.com 1.10,2013-07-02 20:49:00,
2013-07-02 17:04:00,76.0,74.0,30.07,WNW,283,0.0,0.0,94,0.12,,,0.13,weatherlink.com 1.10,2013-07-02 21:04:00,
2013-07-02 17:19:00,76.0,75.0,30.07,WNW,283,0.0,0.0,95,0.11,,,0.13,weatherlink.com 1.10,2013-07-02 21:19:00,
2013-07-02 17:34:00,77.1,76.0,30.07,WNW,283,0.0,0.0,95,0.11,,,0.13,weatherlink.com 1.10,2013-07-02 21:34:00,
2013-07-02 17:49:00,78.0,76.0,30.08,WNW,283,0.0,0.0,94,0.00,,,0.13,weatherlink.com 1.10,2013-07-02 21:49:00,
2013-07-02 18:04:00,78.4,77.0,30.08,WNW,283,0.0,0.0,94,0.00,,,0.13,weatherlink.com 1.10,2013-07-02 22:04:00,
2013-07-02 18:19:00,78.5,77.0,30.08,WNW,283,0.0,0.0,94,0.00,,,0.13,weatherlink.com 1.10,2013-07-02 22:19:00,
2013-07-02 18:34:00,78.5,77.0,30.09,WNW,283,0.0,0.0,94,0.00,,,0.13,weatherlink.com 1.10,2013-07-02 22:34:00,
2013-07-02 18:49:00,78.4,77.0,30.09,WNW,283,0.0,0.0,94,0.00,,,0.13,weatherlink.com 1.10,2013-07-02 22:49:00,
2013-07-02 19:04:00,77.8,76.0,30.10,WNW,283,0.0,0.0,93,0.00,,,0.13,weatherlink.com 1.10,2013-07-02 23:04:00,
2013-07-02 19:19:00,77.7,76.0,30.10,WNW,283,0.0,0.0,94,0.00,,,0.13,weatherlink.com 1.10,2013-07-02 23:19:00,
2013-07-02 19:34:00,77.3,75.0,30.10,WNW,283,0.0,2.0,93,0.00,,,0.13,weatherlink.com 1.10,2013-07-02 23:34:00,
2013-07-02 19:49:00,76.8,75.0,30.10,WNW,283,0.0,0.0,93,0.00,,,0.13,weatherlink.com 1.10,2013-07-02 23:49:00,
2013-07-02 20:04:00,76.4,74.0,30.11,WNW,283,0.0,0.0,93,0.00,,,0.13,weatherlink.com 1.10,2013-07-03 00:04:00,
2013-07-02 20:19:00,76.0,74.0,30.11,WNW,283,0.0,0.0,93,0.00,,,0.13,weatherlink.com 1.10,2013-07-03 00:19:00,
2013-07-02 20:34:00,75.7,74.0,30.11,WNW,283,0.0,0.0,93,0.00,,,0.13,weatherlink.com 1.10,2013-07-03 00:34:00,
2013-07-02 20:49:00,75.5,73.0,30.11,WNW,283,0.0,1.0,93,0.00,,,0.13,weatherlink.com 1.10,2013-07-03 00:49:00,
2013-07-02 21:04:00,75.7,74.0,30.12,WNW,283,0.0,1.0,93,0.00,,,0.13,weatherlink.com 1.10,2013-07-03 01:04:00,
2013-07-02 21:19:00,75.9,74.0,30.13,WNW,282,0.0,3.0,92,0.00,,,0.13,weatherlink.com 1.10,2013-07-03 01:19:00,
2013-07-02 21:34:00,75.7,73.0,30.13,WNW,282,0.0,1.0,92,0.00,,,0.13,weatherlink.com 1.10,2013-07-03 01:34:00,
2013-07-02 21:49:00,75.4,73.0,30.14,WNW,282,0.0,1.0,92,0.00,,,0.13,weatherlink.com 1.10,2013-07-03 01:49:00,
2013-07-02 22:04:00,75.2,73.0,30.14,WNW,282,0.0,0.0,92,0.00,,,0.13,weatherlink.com 1.10,2013-07-03 02:04:00,
2013-07-02 22:49:00,74.3,72.0,30.14,WNW,282,0.0,2.0,93,0.00,,,0.13,weatherlink.com 1.10,2013-07-03 02:49:00,
2013-07-02 23:04:00,74.1,72.0,30.14,WNW,284,0.0,1.0,92,0.00,,,0.13,weatherlink.com 1.10,2013-07-03 03:04:00,
2013-07-02 23:19:00,74.0,71.0,30.14,WNW,284,0.0,0.0,91,0.00,,,0.13,weatherlink.com 1.10,2013-07-03 03:19:00,
2013-07-02 23:49:00,74.2,71.0,30.14,NW,304,0.0,2.0,90,0.00,,,0.13,weatherlink.com 1.10,2013-07-03 03:49:00,